createdAt,value
2023-02-11T00:00:15.683Z,80.03
2023-02-11T00:01:16.561Z,79.18
2023-02-11T00:02:17.495Z,78.72
2023-02-11T00:03:18.404Z,78.30
2023-02-11T00:04:19.269Z,78.19
2023-02-11T00:05:20.142Z,78.30
2023-02-11T00:06:21.035Z,77.84
2023-02-11T00:07:21.904Z,78.05
2023-02-11T00:08:22.797Z,78.47
2023-02-11T00:09:23.676Z,78.37
2023-02-11T00:10:24.559Z,78.37
2023-02-11T00:11:25.445Z,78.05
2023-02-11T00:12:26.331Z,77.84
2023-02-11T00:13:27.222Z,77.62
2023-02-11T00:14:28.090Z,77.31
2023-02-11T00:15:28.964Z,77.52
2023-02-11T00:16:29.922Z,77.84
2023-02-11T00:17:30.743Z,77.94
2023-02-11T00:18:31.650Z,77.94
2023-02-11T00:19:32.545Z,77.73
2023-02-11T00:20:33.432Z,77.66
2023-02-11T00:21:34.307Z,77.66
2023-02-11T00:22:35.177Z,78.30
2023-02-11T00:23:36.068Z,78.30
2023-02-11T00:24:36.952Z,78.40
2023-02-11T00:25:37.858Z,78.51
2023-02-11T00:26:38.735Z,78.51
2023-02-11T00:27:39.594Z,78.93
2023-02-11T00:28:40.492Z,78.83
2023-02-11T00:29:41.392Z,78.72
2023-02-11T00:30:42.370Z,79.07
2023-02-11T00:31:43.450Z,79.04
2023-02-11T00:32:43.837Z,78.86
2023-02-11T00:33:44.723Z,78.83
2023-02-11T00:34:45.614Z,78.44
2023-02-11T00:35:46.526Z,78.19
2023-02-11T00:36:47.388Z,78.22
2023-02-11T00:37:48.256Z,78.33
2023-02-11T00:38:49.162Z,78.65
2023-02-11T00:39:50.033Z,78.75
2023-02-11T00:40:50.927Z,78.75
2023-02-11T00:41:51.806Z,78.65
2023-02-11T00:42:52.719Z,78.65
2023-02-11T00:43:53.598Z,78.65
2023-02-11T00:44:54.469Z,78.75
2023-02-11T00:45:55.397Z,78.75
2023-02-11T00:46:56.248Z,78.65
2023-02-11T00:47:57.110Z,78.65
2023-02-11T00:48:58.131Z,78.75
2023-02-11T00:49:58.956Z,78.75
2023-02-11T00:50:59.840Z,78.44
2023-02-11T00:52:00.756Z,78.33
2023-02-11T00:53:01.600Z,78.55
2023-02-11T00:54:02.492Z,78.65
2023-02-11T00:55:03.375Z,78.86
2023-02-11T00:56:04.284Z,78.97
2023-02-11T00:57:05.147Z,78.97
2023-02-11T00:58:06.029Z,79.18
2023-02-11T00:59:06.913Z,78.97
2023-02-11T01:00:07.793Z,78.86
2023-02-11T01:01:08.701Z,78.97
2023-02-11T01:02:09.555Z,78.86
2023-02-11T01:03:10.484Z,78.55
2023-02-11T01:04:11.363Z,78.44
2023-02-11T01:05:12.300Z,78.12
2023-02-11T01:06:13.165Z,78.02
2023-02-11T01:07:14.078Z,78.05
2023-02-11T01:08:15.000Z,77.94
2023-02-11T01:09:15.869Z,77.94
2023-02-11T01:10:16.762Z,78.05
2023-02-11T01:11:17.651Z,78.26
2023-02-11T01:12:18.525Z,78.47
2023-02-11T01:13:19.444Z,78.47
2023-02-11T01:14:20.333Z,78.30
2023-02-11T01:15:21.234Z,78.30
2023-02-11T01:16:22.196Z,78.51
2023-02-11T01:17:23.088Z,78.61
2023-02-11T01:18:23.976Z,78.72
2023-02-11T01:19:24.889Z,79.25
2023-02-11T01:20:25.781Z,79.50
2023-02-11T01:21:26.689Z,79.50
2023-02-11T01:22:27.643Z,79.60
2023-02-11T01:23:28.494Z,80.03
2023-02-11T01:24:29.404Z,79.82
2023-02-11T01:25:30.306Z,79.82
2023-02-11T01:26:31.196Z,79.71
2023-02-11T01:27:32.100Z,79.71
2023-02-11T01:28:33.117Z,79.71
2023-02-11T01:29:33.550Z,79.60
2023-02-11T01:30:34.415Z,79.82
2023-02-11T01:31:35.495Z,79.71
2023-02-11T01:32:35.896Z,79.93
2023-02-11T01:33:36.784Z,79.93
2023-02-11T01:34:37.697Z,80.24
2023-02-11T01:35:38.588Z,80.88
2023-02-11T01:36:39.484Z,81.20
2023-02-11T01:37:40.373Z,80.77
2023-02-11T01:38:41.472Z,80.38
2023-02-11T01:39:41.840Z,80.38
2023-02-11T01:40:42.748Z,80.17
2023-02-11T01:41:43.616Z,79.96
2023-02-11T01:42:44.492Z,79.64
2023-02-11T01:43:45.372Z,79.85
2023-02-11T01:44:46.272Z,80.07
2023-02-11T01:45:47.188Z,80.10
2023-02-11T01:46:48.138Z,80.10
2023-02-11T01:47:48.995Z,80.42
2023-02-11T01:48:49.888Z,80.63
2023-02-11T01:49:50.763Z,81.16
2023-02-11T01:50:51.636Z,81.27
2023-02-11T01:51:52.515Z,81.59
2023-02-11T01:52:53.440Z,81.48
2023-02-11T01:53:54.308Z,81.48
2023-02-11T01:54:55.186Z,81.27
2023-02-11T01:55:56.082Z,81.05
2023-02-11T01:56:56.950Z,81.05
2023-02-11T01:57:57.857Z,81.05
2023-02-11T01:58:58.728Z,81.27
2023-02-11T01:59:59.676Z,81.27
2023-02-11T02:01:00.513Z,80.85
2023-02-11T02:02:01.475Z,80.63
2023-02-11T02:03:02.379Z,80.63
2023-02-11T02:04:03.327Z,80.74
2023-02-11T02:05:04.183Z,80.85
2023-02-11T02:06:05.059Z,81.05
2023-02-11T02:07:05.941Z,80.99
2023-02-11T02:08:06.853Z,80.56
2023-02-11T02:09:07.727Z,80.35
2023-02-11T02:10:08.626Z,80.88
2023-02-11T02:11:09.504Z,81.52
2023-02-11T02:12:10.387Z,81.73
2023-02-11T02:13:11.271Z,81.98
2023-02-11T02:14:12.143Z,82.30
2023-02-11T02:15:13.111Z,82.30
2023-02-11T02:16:14.031Z,82.73
2023-02-11T02:17:14.906Z,82.83
2023-02-11T02:18:15.854Z,82.83
2023-02-11T02:19:16.716Z,83.04
2023-02-11T02:20:17.623Z,83.69
2023-02-11T02:21:18.493Z,84.11
2023-02-11T02:22:19.368Z,84.00
2023-02-11T02:23:20.293Z,83.69
2023-02-11T02:24:21.163Z,83.47
2023-02-11T02:25:22.091Z,83.15
2023-02-11T02:26:22.946Z,83.15
2023-02-11T02:27:23.818Z,83.26
2023-02-11T02:28:24.802Z,83.36
2023-02-11T02:29:25.644Z,83.04
2023-02-11T02:30:26.564Z,82.94
2023-02-11T02:31:27.485Z,83.04
2023-02-11T02:32:28.388Z,82.83
2023-02-11T02:33:29.238Z,82.94
2023-02-11T02:34:30.129Z,82.83
2023-02-11T02:35:31.049Z,82.73
2023-02-11T02:36:31.936Z,83.04
2023-02-11T02:37:32.825Z,83.15
2023-02-11T02:38:33.716Z,83.26
2023-02-11T02:39:34.576Z,82.94
2023-02-11T02:40:35.467Z,82.62
2023-02-11T02:41:36.351Z,82.30
2023-02-11T02:42:37.245Z,82.30
2023-02-11T02:43:38.122Z,82.62
2023-02-11T02:44:39.006Z,81.98
2023-02-11T02:45:39.906Z,81.67
2023-02-11T02:46:40.858Z,81.98
2023-02-11T02:47:41.728Z,82.40
2023-02-11T02:48:42.582Z,82.94
2023-02-11T02:49:43.481Z,83.26
2023-02-11T02:50:44.372Z,83.36
2023-02-11T02:51:45.272Z,83.47
2023-02-11T02:52:46.144Z,83.69
2023-02-11T02:53:47.041Z,83.79
2023-02-11T02:54:47.939Z,84.11
2023-02-11T02:55:49.115Z,84.85
2023-02-11T02:56:49.595Z,84.85
2023-02-11T02:57:50.475Z,84.32
2023-02-11T02:58:51.046Z,84.22
2023-02-11T02:59:51.918Z,84.32
2023-02-11T03:00:52.854Z,84.22
2023-02-11T03:01:53.696Z,84.11
2023-02-11T03:02:54.581Z,84.00
2023-02-11T03:03:55.496Z,83.44
2023-02-11T03:04:56.026Z,83.15
2023-02-11T03:05:56.969Z,82.83
2023-02-11T03:06:57.838Z,83.15
2023-02-11T03:07:58.719Z,83.15
2023-02-11T03:08:59.614Z,82.94
2023-02-11T03:10:00.515Z,82.83
2023-02-11T03:11:01.086Z,82.65
2023-02-11T03:12:01.969Z,82.65
2023-02-11T03:13:02.857Z,82.45
2023-02-11T03:14:03.749Z,82.34
2023-02-11T03:15:04.616Z,82.65
2023-02-11T03:16:05.537Z,83.08
2023-02-11T03:17:06.139Z,83.19
2023-02-11T03:18:06.990Z,83.19
2023-02-11T03:19:07.866Z,82.87
2023-02-11T03:20:08.778Z,82.55
2023-02-11T03:21:09.662Z,82.76
2023-02-11T03:22:10.565Z,82.98
2023-02-11T03:23:11.428Z,83.08
2023-02-11T03:24:12.343Z,83.29
2023-02-11T03:25:13.194Z,83.29
2023-02-11T03:26:14.085Z,83.51
2023-02-11T03:27:14.972Z,83.61
2023-02-11T03:28:15.881Z,83.61
2023-02-11T03:29:16.739Z,83.83
2023-02-11T03:30:17.634Z,83.72
2023-02-11T03:31:18.657Z,83.72
2023-02-11T03:32:19.154Z,83.83
2023-02-11T03:33:20.011Z,83.83
2023-02-11T03:34:20.907Z,83.72
2023-02-11T03:35:21.777Z,83.40
2023-02-11T03:36:22.668Z,83.29
2023-02-11T03:37:23.565Z,83.19
2023-02-11T03:38:24.424Z,83.29
2023-02-11T03:39:25.327Z,83.51
2023-02-11T03:40:26.191Z,83.40
2023-02-11T03:41:27.078Z,82.98
2023-02-11T03:42:27.964Z,83.08
2023-02-11T03:43:28.859Z,83.08
2023-02-11T03:44:29.759Z,83.40
2023-02-11T03:45:30.759Z,84.04
2023-02-11T03:46:31.165Z,84.36
2023-02-11T03:47:32.043Z,84.36
2023-02-11T03:48:32.929Z,84.14
2023-02-11T03:49:33.817Z,84.04
2023-02-11T03:50:34.707Z,83.51
2023-02-11T03:51:35.582Z,82.98
2023-02-11T03:52:36.464Z,82.45
2023-02-11T03:53:37.339Z,82.59
2023-02-11T03:54:38.238Z,82.80
2023-02-11T03:55:39.097Z,83.01
2023-02-11T03:56:40.042Z,82.90
2023-02-11T03:57:40.873Z,82.59
2023-02-11T03:58:41.762Z,82.41
2023-02-11T03:59:42.633Z,82.31
2023-02-11T04:00:43.526Z,82.41
2023-02-11T04:01:44.421Z,82.52
2023-02-11T04:02:45.352Z,82.41
2023-02-11T04:03:46.219Z,82.52
2023-02-11T04:04:47.137Z,82.73
2023-02-11T04:05:48.655Z,82.84
2023-02-11T04:06:48.709Z,83.15
2023-02-11T04:07:49.595Z,83.26
2023-02-11T04:08:50.474Z,83.69
2023-02-11T04:09:51.369Z,84.01
2023-02-11T04:10:52.237Z,84.22
2023-02-11T04:11:53.131Z,84.65
2023-02-11T04:12:54.010Z,84.75
2023-02-11T04:13:54.881Z,85.18
2023-02-11T04:14:55.773Z,85.07
2023-02-11T04:15:56.748Z,84.97
2023-02-11T04:16:57.651Z,84.86
2023-02-11T04:17:58.512Z,84.65
2023-02-11T04:18:59.397Z,84.11
2023-02-11T04:20:00.279Z,83.80
2023-02-11T04:21:01.167Z,83.69
2023-02-11T04:22:02.048Z,83.80
2023-02-11T04:23:02.927Z,84.11
2023-02-11T04:24:03.819Z,84.11
2023-02-11T04:25:04.716Z,84.22
2023-02-11T04:26:05.651Z,84.33
2023-02-11T04:27:06.482Z,84.33
2023-02-11T04:28:07.396Z,84.11
2023-02-11T04:29:08.240Z,84.33
2023-02-11T04:30:09.121Z,84.44
2023-02-11T04:31:10.052Z,84.65
2023-02-11T04:32:10.999Z,84.54
2023-02-11T04:33:11.434Z,84.22
2023-02-11T04:34:12.311Z,83.90
2023-02-11T04:35:13.195Z,83.48
2023-02-11T04:36:14.078Z,83.48
2023-02-11T04:37:14.961Z,83.58
2023-02-11T04:38:15.849Z,83.37
2023-02-11T04:39:16.778Z,83.37
2023-02-11T04:40:17.235Z,83.09
2023-02-11T04:41:18.128Z,82.84
2023-02-11T04:42:18.999Z,82.52
2023-02-11T04:43:19.864Z,82.52
2023-02-11T04:44:20.738Z,82.52
2023-02-11T04:45:21.639Z,82.62
2023-02-11T04:46:22.586Z,82.84
2023-02-11T04:47:23.468Z,83.05
2023-02-11T04:48:24.352Z,83.83
2023-02-11T04:49:25.234Z,84.65
2023-02-11T04:50:26.129Z,84.86
2023-02-11T04:51:26.994Z,84.97
2023-02-11T04:52:27.884Z,85.18
2023-02-11T04:53:28.771Z,85.28
2023-02-11T04:54:29.643Z,85.18
2023-02-11T04:55:30.549Z,85.07
2023-02-11T04:56:31.412Z,84.86
2023-02-11T04:57:32.298Z,84.22
2023-02-11T04:58:33.179Z,83.58
2023-02-11T04:59:34.060Z,83.37
2023-02-11T05:00:34.933Z,83.37
2023-02-11T05:01:35.884Z,83.15
2023-02-11T05:02:36.768Z,84.22
2023-02-11T05:03:37.663Z,85.18
2023-02-11T05:04:38.552Z,85.61
2023-02-11T05:05:39.437Z,85.82
2023-02-11T05:06:40.327Z,86.03
2023-02-11T05:07:41.216Z,86.14
2023-02-11T05:08:42.103Z,86.03
2023-02-11T05:09:42.986Z,86.24
2023-02-11T05:10:43.926Z,85.93
2023-02-11T05:11:44.752Z,85.28
2023-02-11T05:12:45.645Z,84.65
2023-02-11T05:13:46.536Z,83.48
2023-02-11T05:14:47.411Z,82.31
2023-02-11T05:15:48.611Z,81.35
2023-02-11T05:16:49.156Z,80.60
2023-02-11T05:17:50.058Z,80.21
2023-02-11T05:18:52.646Z,80.32
2023-02-11T05:19:51.566Z,80.85
2023-02-11T05:20:52.452Z,81.95
2023-02-11T05:22:02.211Z,82.81
2023-02-11T05:22:55.101Z,83.76
2023-02-11T05:23:54.991Z,83.98
2023-02-11T05:24:55.863Z,84.19
2023-02-11T05:25:56.770Z,85.25
2023-02-11T05:26:57.628Z,85.58
2023-02-11T05:27:58.595Z,85.58
2023-02-11T05:28:59.432Z,85.58
2023-02-11T05:30:00.324Z,85.96
2023-02-11T05:31:01.250Z,86.18
2023-02-11T05:32:02.125Z,86.39
2023-02-11T05:33:03.006Z,86.18
2023-02-11T05:34:03.900Z,85.86
2023-02-11T05:35:04.786Z,85.22
2023-02-11T05:36:05.649Z,84.58
2023-02-11T05:37:06.577Z,83.94
2023-02-11T05:38:07.436Z,83.30
2023-02-11T05:39:08.335Z,82.66
2023-02-11T05:40:09.208Z,82.45
2023-02-11T05:41:10.104Z,82.66
2023-02-11T05:42:10.966Z,82.98
2023-02-11T05:43:11.954Z,82.98
2023-02-11T05:44:12.830Z,82.91
2023-02-11T05:45:13.703Z,82.91
2023-02-11T05:46:14.672Z,82.70
2023-02-11T05:47:15.501Z,82.48
2023-02-11T05:48:16.400Z,82.48
2023-02-11T05:49:17.025Z,82.91
2023-02-11T05:50:17.909Z,83.27
2023-02-11T05:51:18.794Z,83.91
2023-02-11T05:52:19.677Z,84.33
2023-02-11T05:53:20.569Z,84.66
2023-02-11T05:54:21.446Z,85.19
2023-02-11T05:55:22.370Z,85.72
2023-02-11T05:56:23.236Z,86.11
2023-02-11T05:57:24.088Z,87.10
2023-02-11T05:58:24.982Z,86.96
2023-02-11T05:59:25.876Z,86.43
2023-02-11T06:00:26.747Z,86.21
2023-02-11T06:01:27.718Z,86.11
2023-02-11T06:02:28.587Z,86.11
2023-02-11T06:03:29.444Z,86.00
2023-02-11T06:04:30.284Z,85.79
2023-02-11T06:05:31.134Z,85.79
2023-02-11T06:06:32.081Z,85.47
2023-02-11T06:07:32.946Z,85.15
2023-02-11T06:08:33.745Z,84.83
2023-02-11T06:09:34.611Z,84.66
2023-02-11T06:10:35.422Z,84.55
2023-02-11T06:11:36.337Z,84.87
2023-02-11T06:12:37.161Z,84.87
2023-02-11T06:13:38.001Z,84.87
2023-02-11T06:14:38.836Z,85.30
2023-02-11T06:15:39.697Z,85.47
2023-02-11T06:16:40.495Z,85.58
2023-02-11T06:17:41.319Z,85.36
2023-02-11T06:18:42.153Z,85.25
2023-02-11T06:19:43.000Z,85.00
2023-02-11T06:20:43.855Z,84.69
2023-02-11T06:21:44.765Z,84.47
2023-02-11T06:22:45.536Z,84.15
2023-02-11T06:23:46.361Z,83.73
2023-02-11T06:25:00.913Z,83.51
2023-02-11T06:25:49.293Z,83.51
2023-02-11T06:26:48.498Z,83.94
2023-02-11T06:27:49.309Z,84.26
2023-02-11T06:28:50.137Z,84.15
2023-02-11T06:29:50.957Z,84.15
2023-02-11T06:30:51.932Z,84.15
2023-02-11T06:31:52.842Z,83.83
2023-02-11T06:32:53.717Z,83.73
2023-02-11T06:33:54.505Z,83.87
2023-02-11T06:34:55.337Z,83.87
2023-02-11T06:35:56.158Z,84.05
2023-02-11T06:36:56.990Z,84.30
2023-02-11T06:37:57.813Z,84.94
2023-02-11T06:38:58.684Z,85.43
2023-02-11T06:39:59.486Z,85.53
2023-02-11T06:41:00.336Z,85.75
2023-02-11T06:42:01.172Z,85.86
2023-02-11T06:43:01.993Z,85.64
2023-02-11T06:44:02.813Z,85.64
2023-02-11T06:45:03.692Z,85.86
2023-02-11T06:46:04.484Z,85.96
2023-02-11T06:47:05.309Z,86.18
2023-02-11T06:48:06.152Z,86.35
2023-02-11T06:49:06.986Z,85.93
2023-02-11T06:50:07.814Z,85.50
2023-02-11T06:51:08.644Z,85.07
2023-02-11T06:52:09.459Z,84.97
2023-02-11T06:53:10.409Z,84.97
2023-02-11T06:54:11.226Z,84.97
2023-02-11T06:55:12.065Z,84.86
2023-02-11T06:56:12.889Z,84.86
2023-02-11T06:57:13.741Z,84.75
2023-02-11T06:58:14.547Z,85.07
2023-02-11T06:59:15.385Z,85.28
2023-02-11T07:00:16.214Z,85.61
2023-02-11T07:01:17.058Z,85.39
2023-02-11T07:02:20.636Z,85.14
2023-02-11T07:03:18.769Z,84.93
2023-02-11T07:04:19.596Z,85.03
2023-02-11T07:05:20.397Z,84.72
2023-02-11T07:06:21.221Z,84.61
2023-02-11T07:07:22.075Z,84.68
2023-02-11T07:08:22.892Z,83.83
2023-02-11T07:09:23.742Z,83.26
2023-02-11T07:10:24.560Z,82.30
2023-02-11T07:11:25.388Z,81.41
2023-02-11T07:12:26.230Z,81.16
2023-02-11T07:13:27.038Z,80.52
2023-02-11T07:14:27.878Z,80.49
2023-02-11T07:15:28.717Z,80.60
2023-02-11T07:16:29.601Z,80.81
2023-02-11T07:17:30.439Z,80.91
2023-02-11T07:18:31.272Z,80.60
2023-02-11T07:19:32.123Z,79.96
2023-02-11T07:20:32.930Z,80.17
2023-02-11T07:21:33.752Z,80.28
2023-02-11T07:22:34.595Z,80.28
2023-02-11T07:23:35.423Z,80.17
2023-02-11T07:24:36.253Z,80.21
2023-02-11T07:25:37.092Z,81.05
2023-02-11T07:26:37.954Z,81.16
2023-02-11T07:27:38.755Z,81.05
2023-02-11T07:28:39.558Z,81.38
2023-02-11T07:29:40.433Z,81.59
2023-02-11T07:30:41.272Z,81.27
2023-02-11T07:31:42.264Z,81.38
2023-02-11T07:32:42.591Z,81.59
2023-02-11T07:33:43.433Z,81.98
2023-02-11T07:34:44.246Z,81.45
2023-02-11T07:35:45.068Z,80.60
2023-02-11T07:36:45.915Z,79.93
2023-02-11T07:37:46.735Z,80.24
2023-02-11T07:38:47.563Z,79.57
2023-02-11T07:39:48.398Z,79.78
2023-02-11T07:40:49.225Z,79.25
2023-02-11T07:41:50.068Z,79.00
2023-02-11T07:42:50.903Z,77.94
2023-02-11T07:43:51.710Z,77.94
2023-02-11T07:44:52.560Z,78.47
2023-02-11T07:45:53.388Z,78.97
2023-02-11T07:46:54.385Z,79.28
2023-02-11T07:47:55.173Z,79.53
2023-02-11T07:48:56.022Z,79.32
2023-02-11T07:49:56.900Z,79.22
2023-02-11T07:50:57.672Z,79.53
2023-02-11T07:51:58.492Z,79.96
2023-02-11T07:52:59.323Z,79.85
2023-02-11T07:54:00.277Z,80.60
2023-02-11T07:55:03.789Z,81.45
2023-02-11T07:56:01.999Z,81.76
2023-02-11T07:57:02.845Z,81.55
2023-02-11T07:58:03.688Z,81.34
2023-02-11T07:59:04.490Z,81.02
2023-02-11T08:00:05.324Z,80.60
2023-02-11T08:01:06.177Z,79.60
2023-02-11T08:02:07.054Z,80.03
2023-02-11T08:03:07.852Z,80.77
2023-02-11T08:04:08.662Z,80.98
2023-02-11T08:05:09.507Z,81.16
2023-02-11T08:06:10.319Z,80.84
2023-02-11T08:07:11.139Z,80.63
2023-02-11T08:08:11.971Z,80.84
2023-02-11T08:09:12.791Z,80.94
2023-02-11T08:10:13.620Z,80.73
2023-02-11T08:11:14.448Z,80.94
2023-02-11T08:12:15.278Z,80.84
2023-02-11T08:13:16.129Z,80.41
2023-02-11T08:14:16.961Z,80.63
2023-02-11T08:15:17.775Z,80.94
2023-02-11T08:16:18.634Z,80.41
2023-02-11T08:17:19.446Z,80.10
2023-02-11T08:18:20.265Z,80.21
2023-02-11T08:19:21.102Z,80.73
2023-02-11T08:20:21.949Z,80.84
2023-02-11T08:21:22.772Z,80.73
2023-02-11T08:22:23.601Z,80.52
2023-02-11T08:23:24.440Z,80.41
2023-02-11T08:24:25.267Z,79.78
2023-02-11T08:25:26.103Z,80.31
2023-02-11T08:26:26.919Z,80.41
2023-02-11T08:27:27.824Z,80.94
2023-02-11T08:28:28.758Z,81.26
2023-02-11T08:29:29.568Z,81.37
2023-02-11T08:30:30.393Z,81.37
2023-02-11T08:31:31.543Z,81.48
2023-02-11T08:32:31.862Z,81.01
2023-02-11T08:33:32.702Z,81.12
2023-02-11T08:34:33.538Z,81.44
2023-02-11T08:35:34.363Z,80.91
2023-02-11T08:36:35.194Z,80.69
2023-02-11T08:37:36.035Z,81.23
2023-02-11T08:38:36.866Z,81.65
2023-02-11T08:39:37.731Z,81.23
2023-02-11T08:40:38.544Z,81.40
2023-02-11T08:41:39.376Z,81.40
2023-02-11T08:42:40.205Z,81.09
2023-02-11T08:43:41.043Z,80.87
2023-02-11T08:44:41.876Z,81.09
2023-02-11T08:45:42.737Z,81.51
2023-02-11T08:46:43.570Z,81.30
2023-02-11T08:47:44.398Z,81.19
2023-02-11T08:48:45.219Z,81.40
2023-02-11T08:49:46.070Z,81.72
2023-02-11T08:50:46.892Z,81.30
2023-02-11T08:51:47.738Z,80.66
2023-02-11T08:52:48.542Z,80.66
2023-02-11T08:53:49.371Z,80.98
2023-02-11T08:54:50.210Z,81.37
2023-02-11T08:55:51.402Z,81.37
2023-02-11T08:56:51.847Z,81.37
2023-02-11T08:57:52.650Z,81.37
2023-02-11T08:58:53.508Z,81.37
2023-02-11T08:59:54.314Z,81.47
2023-02-11T09:00:55.155Z,81.23
2023-02-11T09:01:55.983Z,81.23
2023-02-11T09:02:56.784Z,81.54
2023-02-11T09:03:57.608Z,81.65
2023-02-11T09:04:58.455Z,81.82
2023-02-11T09:05:59.288Z,81.71
2023-02-11T09:07:00.118Z,81.82
2023-02-11T09:08:00.939Z,82.03
2023-02-11T09:09:01.772Z,82.14
2023-02-11T09:10:02.608Z,81.82
2023-02-11T09:11:03.440Z,81.40
2023-02-11T09:12:04.268Z,81.29
2023-02-11T09:13:05.095Z,81.78
2023-02-11T09:14:05.936Z,81.68
2023-02-11T09:15:06.764Z,81.68
2023-02-11T09:16:07.597Z,81.68
2023-02-11T09:17:08.475Z,81.32
2023-02-11T09:18:09.269Z,80.48
2023-02-11T09:19:10.083Z,79.63
2023-02-11T09:20:11.047Z,79.00
2023-02-11T09:21:11.820Z,78.05
2023-02-11T09:22:12.647Z,77.06
2023-02-11T09:23:13.481Z,76.96
2023-02-11T09:24:14.310Z,77.06
2023-02-11T09:25:15.151Z,77.70
2023-02-11T09:26:15.980Z,77.17
2023-02-11T09:27:16.831Z,77.45
2023-02-11T09:28:17.672Z,77.98
2023-02-11T09:29:18.518Z,77.56
2023-02-11T09:30:19.356Z,76.40
2023-02-11T09:31:20.318Z,76.08
2023-02-11T09:32:21.136Z,76.36
2023-02-11T09:33:21.969Z,76.68
2023-02-11T09:34:22.802Z,76.57
2023-02-11T09:35:23.646Z,76.78
2023-02-11T09:36:24.467Z,76.57
2023-02-11T09:37:25.300Z,76.68
2023-02-11T09:38:26.131Z,77.10
2023-02-11T09:39:26.962Z,77.38
2023-02-11T09:40:27.801Z,77.48
2023-02-11T09:41:28.631Z,77.91
2023-02-11T09:42:29.456Z,78.22
2023-02-11T09:43:30.278Z,78.22
2023-02-11T09:44:31.133Z,78.72
2023-02-11T09:45:31.953Z,79.24
2023-02-11T09:46:32.860Z,79.03
2023-02-11T09:47:33.681Z,78.05
2023-02-11T09:48:34.513Z,77.52
2023-02-11T09:49:35.342Z,76.78
2023-02-11T09:50:36.259Z,76.47
2023-02-11T09:51:37.036Z,76.57
2023-02-11T09:52:37.870Z,76.75
2023-02-11T09:53:38.706Z,77.07
2023-02-11T09:54:39.536Z,77.28
2023-02-11T09:55:40.385Z,76.72
2023-02-11T09:56:41.203Z,76.29
2023-02-11T09:57:42.036Z,76.09
2023-02-11T09:58:42.868Z,75.45
2023-02-11T09:59:43.739Z,75.21
2023-02-11T10:00:44.533Z,74.89
2023-02-11T10:01:45.453Z,74.68
2023-02-11T10:02:46.244Z,74.12
2023-02-11T10:03:47.065Z,73.60
2023-02-11T10:04:47.900Z,73.39
2023-02-11T10:05:48.817Z,72.86
2023-02-11T10:06:49.644Z,73.04
2023-02-11T10:07:50.472Z,72.72
2023-02-11T10:08:51.308Z,72.20
2023-02-11T10:09:52.133Z,72.41
2023-02-11T10:10:53.479Z,72.48
2023-02-11T10:11:53.945Z,72.58
2023-02-11T10:12:54.782Z,72.90
2023-02-11T10:13:55.651Z,72.58
2023-02-11T10:14:56.482Z,72.55
2023-02-11T10:15:57.376Z,72.34
2023-02-11T10:16:58.159Z,72.34
2023-02-11T10:17:59.001Z,72.03
2023-02-11T10:18:59.814Z,71.99
2023-02-11T10:20:00.728Z,72.20
2023-02-11T10:21:01.533Z,71.78
2023-02-11T10:22:02.336Z,70.53
2023-02-11T10:23:03.178Z,70.31
2023-02-11T10:24:04.033Z,70.42
2023-02-11T10:25:04.829Z,71.44
2023-02-11T10:26:05.659Z,71.86
2023-02-11T10:27:06.515Z,71.75
2023-02-11T10:28:07.342Z,71.65
2023-02-11T10:29:08.158Z,70.91
2023-02-11T10:30:08.999Z,70.36
2023-02-11T10:31:09.955Z,70.36
2023-02-11T10:32:10.409Z,70.36
2023-02-11T10:33:11.208Z,69.73
2023-02-11T10:34:12.027Z,69.31
2023-02-11T10:35:12.848Z,69.20
2023-02-11T10:36:13.692Z,69.83
2023-02-11T10:37:14.512Z,70.15
2023-02-11T10:38:15.344Z,70.15
2023-02-11T10:39:16.169Z,69.38
2023-02-11T10:40:16.997Z,68.44
2023-02-11T10:41:17.845Z,68.65
2023-02-11T10:42:18.672Z,68.65
2023-02-11T10:43:19.497Z,69.38
2023-02-11T10:44:20.321Z,69.80
2023-02-11T10:45:21.175Z,69.56
2023-02-11T10:46:22.080Z,69.14
2023-02-11T10:47:22.878Z,69.04
2023-02-11T10:48:23.692Z,69.04
2023-02-11T10:49:24.523Z,68.93
2023-02-11T10:50:25.341Z,68.09
2023-02-11T10:51:26.186Z,67.46
2023-02-11T10:52:27.040Z,66.73
2023-02-11T10:53:27.847Z,66.42
2023-02-11T10:54:28.676Z,66.39
2023-02-11T10:55:29.500Z,66.80
2023-02-11T10:56:30.355Z,66.39
2023-02-11T10:57:31.157Z,66.07
2023-02-11T10:58:32.011Z,66.49
2023-02-11T10:59:32.817Z,66.70
2023-02-11T11:00:33.677Z,66.07
2023-02-11T11:01:34.500Z,66.25
2023-02-11T11:02:35.323Z,66.36
2023-02-11T11:03:36.147Z,65.73
2023-02-11T11:04:37.068Z,65.73
2023-02-11T11:05:37.881Z,65.62
2023-02-11T11:06:38.702Z,65.62
2023-02-11T11:07:39.530Z,66.04
2023-02-11T11:08:40.352Z,66.22
2023-02-11T11:09:41.182Z,66.53
2023-02-11T11:10:42.011Z,67.27
2023-02-11T11:11:42.853Z,67.68
2023-02-11T11:12:43.727Z,67.37
2023-02-11T11:13:44.536Z,65.77
2023-02-11T11:14:45.371Z,65.67
2023-02-11T11:15:46.259Z,65.14
2023-02-11T11:16:47.088Z,64.10
2023-02-11T11:17:47.919Z,64.59
2023-02-11T11:18:48.751Z,63.34
2023-02-11T11:19:49.567Z,62.40
2023-02-11T11:20:50.690Z,61.56
2023-02-11T11:21:51.147Z,61.56
2023-02-11T11:22:52.007Z,61.77
2023-02-11T11:23:52.824Z,60.83
2023-02-11T11:24:53.660Z,59.97
2023-02-11T11:25:54.516Z,59.86
2023-02-11T11:26:55.345Z,59.76
2023-02-11T11:27:56.206Z,58.40
2023-02-11T11:28:57.010Z,58.09
2023-02-11T11:29:57.831Z,58.19
2023-02-11T11:30:58.803Z,57.35
2023-02-11T11:31:59.248Z,56.18
2023-02-11T11:33:00.049Z,54.30
2023-02-11T11:34:00.882Z,55.76
2023-02-11T11:35:01.695Z,55.03
2023-02-11T11:36:02.514Z,54.61
2023-02-11T11:37:03.368Z,55.84
2023-02-11T11:38:04.219Z,55.00
2023-02-11T11:39:05.044Z,54.49
2023-02-11T11:40:05.871Z,53.86
2023-02-11T11:41:06.694Z,54.35
2023-02-11T11:42:07.567Z,53.94
2023-02-11T11:43:08.383Z,54.46
2023-02-11T11:44:09.212Z,53.94
2023-02-11T11:45:10.031Z,54.04
2023-02-11T11:46:10.914Z,53.70
2023-02-11T11:47:11.705Z,53.91
2023-02-11T11:48:12.535Z,53.08
2023-02-11T11:49:13.368Z,52.25
2023-02-11T11:50:14.185Z,53.18
2023-02-11T11:51:15.011Z,53.89
2023-02-11T11:52:15.839Z,55.04
2023-02-11T11:53:16.672Z,55.04
2023-02-11T11:54:17.499Z,55.04
2023-02-11T11:55:18.337Z,55.55
2023-02-11T11:56:19.157Z,55.66
2023-02-11T11:57:19.991Z,56.60
2023-02-11T11:58:20.821Z,55.66
2023-02-11T11:59:21.664Z,52.22
2023-02-11T12:00:22.488Z,51.99
2023-02-11T12:01:23.386Z,54.07
2023-02-11T12:02:24.307Z,53.86
2023-02-11T12:03:25.172Z,54.91
2023-02-11T12:04:25.948Z,54.80
2023-02-11T12:05:26.790Z,54.59
2023-02-11T12:06:27.619Z,53.76
2023-02-11T12:07:28.443Z,53.13
2023-02-11T12:08:29.278Z,54.28
2023-02-11T12:09:30.113Z,54.80
2023-02-11T12:10:30.948Z,55.11
2023-02-11T12:11:31.785Z,55.84
2023-02-11T12:12:32.635Z,55.40
2023-02-11T12:13:33.436Z,54.67
2023-02-11T12:14:34.271Z,54.67
2023-02-11T12:15:35.099Z,55.30
2023-02-11T12:16:36.018Z,55.40
2023-02-11T12:17:36.835Z,54.77
2023-02-11T12:18:37.664Z,53.94
2023-02-11T12:19:38.505Z,53.63
2023-02-11T12:20:39.330Z,53.53
2023-02-11T12:21:40.172Z,53.74
2023-02-11T12:22:41.043Z,52.80
2023-02-11T12:23:41.852Z,53.71
2023-02-11T12:24:42.673Z,53.40
2023-02-11T12:25:43.504Z,53.08
2023-02-11T12:26:44.329Z,53.19
2023-02-11T12:27:45.298Z,53.40
2023-02-11T12:28:46.063Z,53.40
2023-02-11T12:29:46.898Z,53.19
2023-02-11T12:30:47.867Z,54.13
2023-02-11T12:31:48.817Z,54.02
2023-02-11T12:32:49.617Z,52.98
2023-02-11T12:33:50.441Z,52.77
2023-02-11T12:34:51.270Z,54.44
2023-02-11T12:35:52.116Z,55.06
2023-02-11T12:36:52.949Z,54.64
2023-02-11T12:37:53.820Z,54.85
2023-02-11T12:38:54.663Z,54.54
2023-02-11T12:39:55.470Z,54.96
2023-02-11T12:40:56.291Z,54.85
2023-02-11T12:41:57.118Z,54.41
2023-02-11T12:42:58.988Z,55.24
2023-02-11T12:43:58.520Z,55.56
2023-02-11T12:44:59.353Z,54.93
2023-02-11T12:46:00.320Z,55.24
2023-02-11T12:47:01.156Z,55.24
2023-02-11T12:48:01.969Z,55.35
2023-02-11T12:49:02.792Z,55.04
2023-02-11T12:50:03.630Z,55.35
2023-02-11T12:51:04.443Z,54.72
2023-02-11T12:52:05.273Z,56.08
2023-02-11T12:53:06.102Z,55.98
2023-02-11T12:54:07.035Z,56.18
2023-02-11T12:55:07.785Z,55.77
2023-02-11T12:56:08.616Z,55.24
2023-02-11T12:57:09.437Z,54.62
2023-02-11T12:58:10.278Z,55.35
2023-02-11T12:59:13.906Z,55.35
2023-02-11T13:00:11.644Z,55.56
2023-02-11T13:01:12.464Z,55.87
2023-02-11T13:02:13.400Z,56.39
2023-02-11T13:03:14.198Z,55.98